createdAt,value
2023-05-14T00:00:09.262Z,11.33
2023-05-14T00:02:38.361Z,11.43
2023-05-14T00:05:06.826Z,11.50
2023-05-14T00:07:34.532Z,12.13
2023-05-14T00:10:02.144Z,11.23
2023-05-14T00:12:30.147Z,12.27
2023-05-14T00:14:57.794Z,11.10
2023-05-14T00:17:25.510Z,13.23
2023-05-14T00:19:54.549Z,11.33
2023-05-14T00:22:22.177Z,13.00
2023-05-14T00:24:49.783Z,13.30
2023-05-14T00:27:17.534Z,11.90
2023-05-14T00:29:45.614Z,12.60
2023-05-14T00:32:13.295Z,12.20
2023-05-14T00:34:40.904Z,12.20
2023-05-14T00:37:09.914Z,11.97
2023-05-14T00:39:37.573Z,12.00
2023-05-14T00:42:05.849Z,13.40
2023-05-14T00:44:34.170Z,12.40
2023-05-14T00:47:02.031Z,13.30
2023-05-14T00:49:30.161Z,13.20
2023-05-14T00:52:00.307Z,12.90
2023-05-14T00:54:31.627Z,12.30
2023-05-14T00:57:00.952Z,11.97
2023-05-14T00:59:28.607Z,12.30
2023-05-14T01:01:56.241Z,14.87
2023-05-14T01:04:24.111Z,12.30
2023-05-14T01:07:04.500Z,14.57
2023-05-14T01:09:41.413Z,13.53
2023-05-14T01:12:17.522Z,14.03
2023-05-14T01:14:54.759Z,13.77
2023-05-14T01:17:23.347Z,14.67
2023-05-14T01:19:52.545Z,15.77
2023-05-14T01:22:21.547Z,13.57
2023-05-14T01:24:49.172Z,14.50
2023-05-14T01:27:23.305Z,13.60
2023-05-14T01:29:55.485Z,15.60
2023-05-14T01:32:24.648Z,14.00
2023-05-14T01:34:53.642Z,14.03
2023-05-14T01:37:23.531Z,15.70
2023-05-14T01:39:52.807Z,16.90
2023-05-14T01:42:20.661Z,15.40
2023-05-14T01:44:48.347Z,16.70
2023-05-14T01:47:15.996Z,15.30
2023-05-14T01:49:43.653Z,15.60
2023-05-14T01:52:12.033Z,17.80
2023-05-14T01:54:40.955Z,16.07
2023-05-14T01:57:08.580Z,17.63
2023-05-14T01:59:36.201Z,18.93
2023-05-14T02:02:03.831Z,17.50
2023-05-14T02:04:31.518Z,17.57
2023-05-14T02:06:59.151Z,18.03
2023-05-14T02:09:26.714Z,17.60
2023-05-14T02:11:55.803Z,18.47
2023-05-14T02:14:23.387Z,17.67
2023-05-14T02:16:52.028Z,18.67
2023-05-14T02:19:19.661Z,18.73
2023-05-14T02:21:47.412Z,17.63
2023-05-14T02:24:15.308Z,18.07
2023-05-14T02:26:43.289Z,20.40
2023-05-14T02:29:12.647Z,18.20
2023-05-14T02:31:40.539Z,20.03
2023-05-14T02:34:08.221Z,18.93
2023-05-14T02:36:36.261Z,17.87
2023-05-14T02:39:04.623Z,18.97
2023-05-14T02:41:32.626Z,19.33
2023-05-14T02:44:00.510Z,20.67
2023-05-14T02:46:29.770Z,19.40
2023-05-14T02:48:57.952Z,20.40
2023-05-14T02:51:26.930Z,21.33
2023-05-14T02:53:54.831Z,19.93
2023-05-14T02:56:22.822Z,20.60
2023-05-14T02:58:51.076Z,21.80
2023-05-14T03:01:19.911Z,22.10
2023-05-14T03:03:50.262Z,21.50
2023-05-14T03:06:17.971Z,21.80
2023-05-14T03:08:45.935Z,22.50
2023-05-14T03:11:13.642Z,21.50
2023-05-14T03:13:41.715Z,23.30
2023-05-14T03:16:09.985Z,22.03
2023-05-14T03:18:37.971Z,21.37
2023-05-14T03:21:09.076Z,21.10
2023-05-14T03:23:36.738Z,21.90
2023-05-14T03:26:04.913Z,19.30
2023-05-14T03:28:32.855Z,21.63
2023-05-14T03:31:01.293Z,21.93
2023-05-14T03:33:29.568Z,22.60
2023-05-14T03:35:57.842Z,20.30
2023-05-14T03:38:26.970Z,21.40
2023-05-14T03:40:55.347Z,21.43
2023-05-14T03:43:23.422Z,22.10
2023-05-14T03:45:54.679Z,20.90
2023-05-14T03:48:22.858Z,20.43
2023-05-14T03:50:51.358Z,22.23
2023-05-14T03:53:19.411Z,21.70
2023-05-14T03:55:48.864Z,21.67
2023-05-14T03:58:17.399Z,22.80
2023-05-14T04:00:47.022Z,23.40
2023-05-14T04:03:15.122Z,21.60
2023-05-14T04:05:43.062Z,21.40
2023-05-14T04:08:11.321Z,23.13
2023-05-14T04:10:39.474Z,22.77
2023-05-14T04:13:08.839Z,23.43
2023-05-14T04:15:39.398Z,21.27
2023-05-14T04:18:07.983Z,23.20
2023-05-14T04:20:35.781Z,24.43
2023-05-14T04:23:03.807Z,24.97
2023-05-14T04:25:31.733Z,25.67
2023-05-14T04:28:01.849Z,24.00
2023-05-14T04:30:31.322Z,22.93
2023-05-14T04:32:59.158Z,21.63
2023-05-14T04:35:27.042Z,24.83
2023-05-14T04:37:55.140Z,22.80
2023-05-14T04:40:24.007Z,22.10
2023-05-14T04:42:52.748Z,21.63
2023-05-14T04:45:21.521Z,21.50
2023-05-14T04:47:51.438Z,20.60
2023-05-14T04:50:19.382Z,21.20
2023-05-14T04:52:49.515Z,21.43
2023-05-14T04:55:17.499Z,20.50
2023-05-14T04:57:45.562Z,20.50
2023-05-14T05:00:14.904Z,18.20
2023-05-14T05:02:43.201Z,17.67
2023-05-14T05:05:12.506Z,19.00
2023-05-14T05:07:40.410Z,17.53
2023-05-14T05:10:10.610Z,20.93
2023-05-14T05:12:38.694Z,21.03
2023-05-14T05:15:07.663Z,21.13
2023-05-14T05:17:35.774Z,21.13
2023-05-14T05:20:05.242Z,20.27
2023-05-14T05:22:34.673Z,20.87
2023-05-14T05:25:06.768Z,18.37
2023-05-14T05:27:34.448Z,19.47
2023-05-14T05:30:05.797Z,16.90
2023-05-14T05:32:33.737Z,15.03
2023-05-14T05:35:03.805Z,14.87
2023-05-14T05:37:32.023Z,15.40
2023-05-14T05:40:01.083Z,14.70
2023-05-14T05:42:28.835Z,14.20
2023-05-14T05:44:57.502Z,14.53
2023-05-14T05:47:25.664Z,13.37
2023-05-14T05:49:54.206Z,14.00
2023-05-14T05:52:21.930Z,14.70
2023-05-14T05:54:50.328Z,15.03
2023-05-14T05:57:19.989Z,13.20
2023-05-14T05:59:47.968Z,12.97
2023-05-14T06:02:16.318Z,13.13
2023-05-14T06:04:44.129Z,13.53
2023-05-14T06:07:13.011Z,12.60
2023-05-14T06:09:41.076Z,13.10
2023-05-14T06:12:11.135Z,13.80
2023-05-14T06:14:41.307Z,13.90
2023-05-14T06:17:09.483Z,13.73
2023-05-14T06:19:38.471Z,12.73
2023-05-14T06:22:06.420Z,13.47
2023-05-14T06:24:34.706Z,12.60
2023-05-14T06:27:02.635Z,13.33
2023-05-14T06:29:30.502Z,13.57
2023-05-14T06:32:03.724Z,12.20
2023-05-14T06:34:32.037Z,12.53
2023-05-14T06:37:03.718Z,12.60
2023-05-14T06:39:32.260Z,12.07
2023-05-14T06:42:00.348Z,13.77
2023-05-14T06:44:28.820Z,13.03
2023-05-14T06:46:57.448Z,12.40
2023-05-14T06:49:26.881Z,14.00
2023-05-14T06:51:54.956Z,11.90
2023-05-14T06:54:22.967Z,12.10
2023-05-14T06:56:51.269Z,12.20
2023-05-14T06:59:19.732Z,12.07
2023-05-14T07:01:48.490Z,12.30
2023-05-14T07:04:16.800Z,11.60
2023-05-14T07:06:46.261Z,11.20
2023-05-14T07:09:14.135Z,11.90
2023-05-14T07:11:42.107Z,11.60
2023-05-14T07:14:11.834Z,12.17
2023-05-14T07:16:40.426Z,11.70
2023-05-14T07:19:08.434Z,11.87
2023-05-14T07:21:36.838Z,10.37
2023-05-14T07:24:07.136Z,10.33
2023-05-14T07:26:35.271Z,10.63
2023-05-14T07:29:03.386Z,12.23
2023-05-14T07:31:31.581Z,11.40
2023-05-14T07:33:59.573Z,12.07
2023-05-14T07:36:27.930Z,10.87
2023-05-14T07:38:59.477Z,11.87
2023-05-14T07:41:34.407Z,9.93
2023-05-14T07:44:09.860Z,10.57
2023-05-14T07:46:38.291Z,10.20
2023-05-14T07:49:06.224Z,11.40
2023-05-14T07:51:35.510Z,10.37
2023-05-14T07:54:05.534Z,10.67
2023-05-14T07:56:34.948Z,10.70
2023-05-14T07:59:02.832Z,10.87
2023-05-14T08:01:31.221Z,10.03
2023-05-14T08:03:58.920Z,10.10
2023-05-14T08:06:27.567Z,9.77
2023-05-14T08:08:55.257Z,8.70
2023-05-14T08:11:23.387Z,9.00
2023-05-14T08:13:55.081Z,9.00
2023-05-14T08:16:23.473Z,9.37
2023-05-14T08:18:51.151Z,9.40
2023-05-14T08:21:30.685Z,9.40
2023-05-14T08:26:43.065Z,10.23
2023-05-14T08:29:13.429Z,8.70
2023-05-14T08:31:44.623Z,9.07
2023-05-14T08:34:15.637Z,8.73
2023-05-14T08:36:43.360Z,8.83
2023-05-14T08:39:11.140Z,7.17
2023-05-14T08:41:39.162Z,6.43
2023-05-14T08:44:10.002Z,7.10
2023-05-14T08:46:40.165Z,6.40
2023-05-14T08:49:18.199Z,6.17
2023-05-14T08:51:47.045Z,5.57
2023-05-14T08:54:18.239Z,6.47
2023-05-14T08:56:47.217Z,6.03
2023-05-14T08:59:17.434Z,5.80
2023-05-14T09:01:48.661Z,6.27
2023-05-14T09:04:20.800Z,6.67
2023-05-14T09:06:51.719Z,9.43
2023-05-14T09:09:22.364Z,5.23
2023-05-14T09:11:51.029Z,5.60
2023-05-14T09:14:18.715Z,5.53
2023-05-14T09:16:49.873Z,5.60
2023-05-14T09:19:18.988Z,6.10
2023-05-14T09:21:48.694Z,5.33
2023-05-14T09:24:21.107Z,5.10
2023-05-14T09:26:51.768Z,5.33
2023-05-14T09:29:19.590Z,5.40
2023-05-14T09:31:51.014Z,5.37
2023-05-14T09:34:25.030Z,5.23
2023-05-14T09:36:57.234Z,5.50
2023-05-14T09:39:24.995Z,5.47
2023-05-14T09:41:53.488Z,6.67
2023-05-14T09:44:22.156Z,5.73
2023-05-14T09:46:52.466Z,5.30
2023-05-14T09:49:20.317Z,5.53
2023-05-14T09:51:50.682Z,5.43
2023-05-14T09:54:18.978Z,4.63
2023-05-14T09:56:46.636Z,4.83
2023-05-14T09:59:14.941Z,5.57
2023-05-14T10:01:44.568Z,5.30
2023-05-14T10:04:15.776Z,5.20
2023-05-14T10:06:48.826Z,5.63
2023-05-14T10:09:22.106Z,5.57
2023-05-14T10:11:54.509Z,4.83
2023-05-14T10:14:30.340Z,4.93
2023-05-14T10:17:01.957Z,4.60
2023-05-14T10:19:35.218Z,5.10
2023-05-14T10:22:07.996Z,5.03
2023-05-14T10:24:38.759Z,4.60
2023-05-14T10:27:06.967Z,5.57
2023-05-14T10:29:35.475Z,5.90
2023-05-14T10:32:06.276Z,5.13
2023-05-14T10:34:38.402Z,5.50
2023-05-14T10:37:08.861Z,4.77
2023-05-14T10:39:44.493Z,4.70
2023-05-14T10:42:13.105Z,4.93
2023-05-14T10:44:48.025Z,6.73
2023-05-14T10:47:17.268Z,5.40
2023-05-14T10:49:49.102Z,5.63
2023-05-14T10:52:19.690Z,4.93
2023-05-14T10:54:55.129Z,5.00
2023-05-14T10:57:24.664Z,5.40
2023-05-14T10:59:55.020Z,4.90
2023-05-14T11:02:25.073Z,5.93
2023-05-14T11:04:59.456Z,4.63
2023-05-14T11:07:32.183Z,5.60
2023-05-14T11:10:03.822Z,5.07
2023-05-14T11:12:31.753Z,5.73
2023-05-14T11:15:02.296Z,4.93
2023-05-14T11:17:31.664Z,5.10
2023-05-14T11:20:01.172Z,5.67
2023-05-14T11:22:28.851Z,5.70
2023-05-14T11:24:56.856Z,5.43
2023-05-14T11:27:24.645Z,5.23
2023-05-14T11:29:52.223Z,5.57
2023-05-14T11:32:21.143Z,4.97
2023-05-14T11:34:48.931Z,5.40
2023-05-14T11:37:18.147Z,5.20
2023-05-14T11:39:50.593Z,5.40
2023-05-14T11:42:19.509Z,5.40
2023-05-14T11:44:48.957Z,5.57
2023-05-14T11:47:18.211Z,4.97
2023-05-14T11:49:46.024Z,5.20
2023-05-14T11:52:15.048Z,5.63
2023-05-14T11:54:45.235Z,5.67
2023-05-14T11:57:14.379Z,6.60
2023-05-14T11:59:42.330Z,6.90
2023-05-14T12:02:11.682Z,6.17
2023-05-14T12:04:39.592Z,6.07
2023-05-14T12:07:11.988Z,6.43
2023-05-14T12:09:48.960Z,5.53
2023-05-14T12:12:19.315Z,6.70
2023-05-14T12:14:47.143Z,6.60
2023-05-14T12:17:16.479Z,6.70
2023-05-14T12:19:45.570Z,7.23
2023-05-14T12:22:14.720Z,7.30
2023-05-14T12:24:43.864Z,7.30
2023-05-14T12:27:12.025Z,8.00
2023-05-14T12:29:40.031Z,7.47
2023-05-14T12:32:11.176Z,6.40
2023-05-14T12:34:39.216Z,5.97
2023-05-14T12:37:07.577Z,7.10
2023-05-14T12:39:35.642Z,7.10
2023-05-14T12:42:04.795Z,7.57
2023-05-14T12:44:32.406Z,7.07
2023-05-14T12:47:00.094Z,6.90
2023-05-14T12:49:28.327Z,6.30
2023-05-14T12:52:07.636Z,6.23
2023-05-14T12:54:43.807Z,6.40
2023-05-14T12:57:12.962Z,5.90
2023-05-14T12:59:41.058Z,6.10
2023-05-14T13:02:09.031Z,6.07
2023-05-14T13:04:37.278Z,5.73
2023-05-14T13:07:05.137Z,6.27
2023-05-14T13:09:32.851Z,6.50
2023-05-14T13:12:00.736Z,7.00
2023-05-14T13:14:29.694Z,6.43
2023-05-14T13:16:58.054Z,6.50
2023-05-14T13:19:25.783Z,6.47
2023-05-14T13:21:53.401Z,5.70
2023-05-14T13:24:21.205Z,6.50
2023-05-14T13:26:48.807Z,6.60
2023-05-14T13:29:16.839Z,6.10
2023-05-14T13:31:45.927Z,6.33
2023-05-14T13:34:14.712Z,5.57
2023-05-14T13:36:43.573Z,5.40
2023-05-14T13:39:13.048Z,6.20
2023-05-14T13:41:41.735Z,6.33
2023-05-14T13:44:09.401Z,6.00
2023-05-14T13:46:37.153Z,5.80
2023-05-14T13:49:06.478Z,6.43
2023-05-14T13:51:34.106Z,5.70
2023-05-14T13:54:01.814Z,6.33
2023-05-14T13:56:29.491Z,5.90
2023-05-14T13:58:57.592Z,6.03
2023-05-14T14:01:25.607Z,5.63
2023-05-14T14:03:53.312Z,5.97
2023-05-14T14:06:22.586Z,5.33
2023-05-14T14:08:50.228Z,6.47
2023-05-14T14:11:17.956Z,6.70
2023-05-14T14:13:46.800Z,5.80
2023-05-14T14:16:14.642Z,5.50
2023-05-14T14:18:43.214Z,5.23
2023-05-14T14:21:12.231Z,5.40
2023-05-14T14:23:41.506Z,5.50
2023-05-14T14:26:09.119Z,5.83
2023-05-14T14:28:36.948Z,6.10
2023-05-14T14:31:04.630Z,5.57
2023-05-14T14:33:32.245Z,5.57
2023-05-14T14:35:59.868Z,5.97
2023-05-14T14:38:27.506Z,5.40
2023-05-14T14:40:56.468Z,5.13
2023-05-14T14:43:24.979Z,4.73
2023-05-14T14:45:52.649Z,5.73
2023-05-14T14:48:25.098Z,6.23
2023-05-14T14:50:52.906Z,6.33
2023-05-14T14:53:20.604Z,5.57
2023-05-14T14:55:48.997Z,5.70
2023-05-14T14:58:19.853Z,5.77
2023-05-14T15:00:47.856Z,5.83
2023-05-14T15:03:16.276Z,6.10
2023-05-14T15:05:43.966Z,7.03
2023-05-14T15:08:12.044Z,6.10
2023-05-14T15:10:41.157Z,5.90
2023-05-14T15:13:09.479Z,5.00
2023-05-14T15:15:38.510Z,5.03
2023-05-14T15:18:06.492Z,5.97
2023-05-14T15:20:34.122Z,5.90
2023-05-14T15:23:01.778Z,6.13
2023-05-14T15:25:29.879Z,5.60
2023-05-14T15:27:57.556Z,6.23
2023-05-14T15:30:25.291Z,6.60
2023-05-14T15:32:54.535Z,5.90
2023-05-14T15:35:22.762Z,5.80
2023-05-14T15:37:50.613Z,6.33
2023-05-14T15:40:19.981Z,5.87
2023-05-14T15:42:47.883Z,5.97
2023-05-14T15:45:15.617Z,5.70
2023-05-14T15:47:44.185Z,6.20
2023-05-14T15:50:13.364Z,5.50
2023-05-14T15:52:41.567Z,6.40
2023-05-14T15:55:09.986Z,5.47
2023-05-14T15:57:37.673Z,5.57
2023-05-14T16:00:10.390Z,5.03
2023-05-14T16:02:38.042Z,5.97
2023-05-14T16:05:06.648Z,6.13
2023-05-14T16:07:36.009Z,5.73
2023-05-14T16:10:03.748Z,5.60
2023-05-14T16:12:31.593Z,5.77
2023-05-14T16:14:59.853Z,6.10
2023-05-14T16:17:27.583Z,5.70
2023-05-14T16:19:56.416Z,5.83
2023-05-14T16:22:24.289Z,5.47
2023-05-14T16:24:53.261Z,5.73
2023-05-14T16:27:21.044Z,5.90
2023-05-14T16:29:48.610Z,5.20
2023-05-14T16:32:16.439Z,5.40
2023-05-14T16:34:49.458Z,5.10
2023-05-14T16:37:17.309Z,6.10
2023-05-14T16:39:44.986Z,6.37
2023-05-14T16:42:14.280Z,5.23
2023-05-14T16:44:41.907Z,5.70
2023-05-14T16:47:09.549Z,5.70
2023-05-14T16:49:37.614Z,6.70
2023-05-14T16:52:06.000Z,6.87
2023-05-14T16:54:33.654Z,8.13
2023-05-14T16:57:01.229Z,8.27
2023-05-14T16:59:30.229Z,5.60
2023-05-14T17:01:57.892Z,5.50
2023-05-14T17:04:26.618Z,6.30
2023-05-14T17:06:54.773Z,6.23
2023-05-14T17:09:22.354Z,6.30
2023-05-14T17:11:49.954Z,5.70
2023-05-14T17:14:17.564Z,6.20
2023-05-14T17:16:46.667Z,5.87
2023-05-14T17:19:14.344Z,6.70
2023-05-14T17:21:42.157Z,6.27
2023-05-14T17:24:09.842Z,5.40
2023-05-14T17:26:37.689Z,5.40
2023-05-14T17:29:05.267Z,5.30
2023-05-14T17:31:32.938Z,6.17
2023-05-14T17:34:01.932Z,5.43
2023-05-14T17:36:29.528Z,5.43
2023-05-14T17:38:57.170Z,5.83
2023-05-14T17:41:25.351Z,5.73
2023-05-14T17:43:53.163Z,6.07
2023-05-14T17:46:21.267Z,5.40
2023-05-14T17:48:49.955Z,5.40
2023-05-14T17:51:19.002Z,5.97
2023-05-14T17:53:46.556Z,5.60
2023-05-14T17:56:15.587Z,5.50
2023-05-14T17:58:43.252Z,6.00
2023-05-14T18:01:11.058Z,5.43
2023-05-14T18:03:39.133Z,5.10
2023-05-14T18:06:07.152Z,5.00
2023-05-14T18:08:36.109Z,5.40
2023-05-14T18:11:03.768Z,5.63
2023-05-14T18:13:31.797Z,5.50
2023-05-14T18:16:00.529Z,5.40
2023-05-14T18:18:28.349Z,6.10
2023-05-14T18:20:55.936Z,5.97
2023-05-14T18:23:24.037Z,5.33
2023-05-14T18:25:53.414Z,5.83
2023-05-14T18:28:21.521Z,5.23
2023-05-14T18:30:50.102Z,5.77
2023-05-14T18:33:18.049Z,6.10
2023-05-14T18:35:45.672Z,5.20
2023-05-14T18:38:13.812Z,5.43
2023-05-14T18:40:41.513Z,5.80
2023-05-14T18:43:11.622Z,5.60
2023-05-14T18:45:40.280Z,5.87
2023-05-14T18:48:08.102Z,5.30
2023-05-14T18:50:37.441Z,5.30
2023-05-14T18:53:06.672Z,5.60
2023-05-14T18:55:35.951Z,5.60
2023-05-14T18:58:03.689Z,5.83
2023-05-14T19:00:32.755Z,5.60
2023-05-14T19:03:00.786Z,5.77
2023-05-14T19:05:28.678Z,4.70
2023-05-14T19:07:57.524Z,5.57
2023-05-14T19:10:25.169Z,5.97
2023-05-14T19:12:52.876Z,6.40
2023-05-14T19:15:20.583Z,5.87
2023-05-14T19:17:50.106Z,6.20
2023-05-14T19:20:17.721Z,6.53
2023-05-14T19:22:45.406Z,6.00
2023-05-14T19:25:13.195Z,6.67
2023-05-14T19:27:41.093Z,6.73
2023-05-14T19:30:09.873Z,6.20
2023-05-14T19:32:38.063Z,5.70
2023-05-14T19:35:07.762Z,6.77
2023-05-14T19:37:35.486Z,5.80
2023-05-14T19:40:03.637Z,6.40
2023-05-14T19:42:31.778Z,6.20
2023-05-14T19:44:59.720Z,7.10
2023-05-14T19:47:28.472Z,7.53
2023-05-14T19:49:56.194Z,8.13
2023-05-14T19:52:25.425Z,7.87
2023-05-14T19:54:53.633Z,8.67
2023-05-14T19:57:21.231Z,9.97
2023-05-14T19:59:48.856Z,8.30
2023-05-14T20:02:18.254Z,8.13
2023-05-14T20:04:47.298Z,8.70
2023-05-14T20:07:15.633Z,8.77
2023-05-14T20:09:44.722Z,9.60
2023-05-14T20:12:13.217Z,9.47
2023-05-14T20:14:41.401Z,9.93
2023-05-14T20:17:09.081Z,9.40
2023-05-14T20:19:36.789Z,8.80
2023-05-14T20:22:04.504Z,8.67
2023-05-14T20:24:32.168Z,10.30
2023-05-14T20:27:01.593Z,9.83
2023-05-14T20:29:29.684Z,10.60
2023-05-14T20:31:57.528Z,11.57
2023-05-14T20:34:25.179Z,10.83
2023-05-14T20:36:52.893Z,10.27
2023-05-14T20:39:20.892Z,10.77
2023-05-14T20:41:48.498Z,11.87
2023-05-14T20:44:19.067Z,11.43
2023-05-14T20:46:48.125Z,11.03
2023-05-14T20:49:15.814Z,11.00
2023-05-14T20:51:43.436Z,12.10
2023-05-14T20:54:11.393Z,11.40
2023-05-14T20:56:39.026Z,13.00
2023-05-14T20:59:06.597Z,10.80
2023-05-14T21:01:35.655Z,11.47
2023-05-14T21:04:03.493Z,12.37
2023-05-14T21:06:31.344Z,11.80
2023-05-14T21:08:58.935Z,13.33
2023-05-14T21:11:26.553Z,12.93
2023-05-14T21:13:54.246Z,13.37
2023-05-14T21:16:21.997Z,13.83
2023-05-14T21:18:50.995Z,13.07
2023-05-14T21:21:18.590Z,12.37
2023-05-14T21:23:46.236Z,12.77
2023-05-14T21:26:13.846Z,12.93
2023-05-14T21:28:41.547Z,13.60
2023-05-14T21:31:09.214Z,14.33
2023-05-14T21:33:36.802Z,13.53
2023-05-14T21:36:07.331Z,14.97
2023-05-14T21:38:35.197Z,13.53
2023-05-14T21:41:02.980Z,14.60
2023-05-14T21:43:30.593Z,13.93
2023-05-14T21:45:58.207Z,14.70
2023-05-14T21:48:26.024Z,13.77
2023-05-14T21:50:53.694Z,14.57
2023-05-14T21:53:22.922Z,16.07
2023-05-14T21:55:50.770Z,16.57
2023-05-14T21:58:18.401Z,15.53
2023-05-14T22:00:46.107Z,14.87
2023-05-14T22:03:13.992Z,16.20
2023-05-14T22:05:41.675Z,14.33
2023-05-14T22:08:09.269Z,16.37
2023-05-14T22:10:38.935Z,17.43
2023-05-14T22:13:06.685Z,17.27
2023-05-14T22:15:34.307Z,17.70
2023-05-14T22:18:03.084Z,18.20
2023-05-14T22:20:30.756Z,18.53
2023-05-14T22:22:58.356Z,16.87
2023-05-14T22:25:26.311Z,17.50
2023-05-14T22:27:55.698Z,18.67
2023-05-14T22:30:23.430Z,19.33
2023-05-14T22:32:51.062Z,18.93
2023-05-14T22:35:18.889Z,18.67
2023-05-14T22:37:46.492Z,18.80
2023-05-14T22:40:14.564Z,20.77
2023-05-14T22:42:42.179Z,17.37
2023-05-14T22:45:12.280Z,18.40
2023-05-14T22:47:40.089Z,16.90
2023-05-14T22:50:11.402Z,20.53
2023-05-14T22:52:39.187Z,20.57
2023-05-14T22:55:07.872Z,20.73
2023-05-14T22:57:35.747Z,18.63
2023-05-14T23:00:04.086Z,18.03
2023-05-14T23:02:34.161Z,20.30
2023-05-14T23:05:01.828Z,19.73
2023-05-14T23:07:29.469Z,20.20
2023-05-14T23:09:57.414Z,17.90
2023-05-14T23:12:26.593Z,20.00
2023-05-14T23:14:54.192Z,22.30
2023-05-14T23:17:21.975Z,21.70
2023-05-14T23:19:51.267Z,21.37
2023-05-14T23:22:19.096Z,20.87
2023-05-14T23:24:47.237Z,22.63
2023-05-14T23:27:14.926Z,21.03
2023-05-14T23:29:42.499Z,20.50
2023-05-14T23:32:10.268Z,23.50
2023-05-14T23:34:37.987Z,21.30
2023-05-14T23:37:07.553Z,22.87
2023-05-14T23:39:35.170Z,22.43
2023-05-14T23:42:02.737Z,22.93
2023-05-14T23:44:30.302Z,26.30
2023-05-14T23:46:57.898Z,22.37
2023-05-14T23:49:25.563Z,26.23
2023-05-14T23:51:53.141Z,25.73
2023-05-14T23:54:22.251Z,27.07
2023-05-14T23:56:50.335Z,28.90
2023-05-14T23:59:17.933Z,27.47
